sensor_id;sensor_type;location;lat;lon;timestamp;temperature;humidity
76751;SHT31;65216;51.090;-115.352;2024-01-27T00:00:25;22.99;24.59
76751;SHT31;65216;51.090;-115.352;2024-01-27T00:02:54;23.00;24.60
76751;SHT31;65216;51.090;-115.352;2024-01-27T00:05:21;23.00;24.65
76751;SHT31;65216;51.090;-115.352;2024-01-27T00:07:48;23.03;24.64
76751;SHT31;65216;51.090;-115.352;2024-01-27T00:10:17;23.04;24.59
76751;SHT31;65216;51.090;-115.352;2024-01-27T00:12:46;23.03;24.82
76751;SHT31;65216;51.090;-115.352;2024-01-27T00:15:13;23.02;24.90
76751;SHT31;65216;51.090;-115.352;2024-01-27T00:17:40;23.01;24.97
76751;SHT31;65216;51.090;-115.352;2024-01-27T00:20:10;22.99;24.99
76751;SHT31;65216;51.090;-115.352;2024-01-27T00:22:37;22.99;25.03
76751;SHT31;65216;51.090;-115.352;2024-01-27T00:25:04;22.98;25.06
76751;SHT31;65216;51.090;-115.352;2024-01-27T00:27:32;22.97;25.09
76751;SHT31;65216;51.090;-115.352;2024-01-27T00:30:02;22.98;25.13
76751;SHT31;65216;51.090;-115.352;2024-01-27T00:32:30;22.97;25.01
76751;SHT31;65216;51.090;-115.352;2024-01-27T00:34:59;22.97;25.02
76751;SHT31;65216;51.090;-115.352;2024-01-27T00:37:25;22.94;25.01
76751;SHT31;65216;51.090;-115.352;2024-01-27T00:39:53;22.93;25.04
76751;SHT31;65216;51.090;-115.352;2024-01-27T00:42:20;22.93;25.21
76751;SHT31;65216;51.090;-115.352;2024-01-27T00:44:50;22.94;25.15
76751;SHT31;65216;51.090;-115.352;2024-01-27T00:47:17;22.92;25.14
76751;SHT31;65216;51.090;-115.352;2024-01-27T00:49:44;22.93;25.20
76751;SHT31;65216;51.090;-115.352;2024-01-27T00:52:12;22.93;25.22
76751;SHT31;65216;51.090;-115.352;2024-01-27T00:54:39;22.92;25.24
76751;SHT31;65216;51.090;-115.352;2024-01-27T00:57:08;22.92;25.27
76751;SHT31;65216;51.090;-115.352;2024-01-27T00:59:35;22.91;25.28
76751;SHT31;65216;51.090;-115.352;2024-01-27T01:02:04;22.89;25.22
76751;SHT31;65216;51.090;-115.352;2024-01-27T01:04:31;22.89;25.21
76751;SHT31;65216;51.090;-115.352;2024-01-27T01:06:58;22.91;25.31
76751;SHT31;65216;51.090;-115.352;2024-01-27T01:09:25;22.92;25.21
76751;SHT31;65216;51.090;-115.352;2024-01-27T01:11:52;22.91;25.19
76751;SHT31;65216;51.090;-115.352;2024-01-27T01:14:20;22.88;25.20
76751;SHT31;65216;51.090;-115.352;2024-01-27T01:16:46;22.86;25.24
76751;SHT31;65216;51.090;-115.352;2024-01-27T01:19:13;22.86;25.31
76751;SHT31;65216;51.090;-115.352;2024-01-27T01:21:40;22.85;25.34
76751;SHT31;65216;51.090;-115.352;2024-01-27T01:24:07;22.82;25.43
76751;SHT31;65216;51.090;-115.352;2024-01-27T01:26:34;22.81;25.41
76751;SHT31;65216;51.090;-115.352;2024-01-27T01:29:01;22.82;25.42
76751;SHT31;65216;51.090;-115.352;2024-01-27T01:31:28;22.82;25.43
76751;SHT31;65216;51.090;-115.352;2024-01-27T01:33:55;22.81;25.55
76751;SHT31;65216;51.090;-115.352;2024-01-27T01:36:22;22.80;25.51
76751;SHT31;65216;51.090;-115.352;2024-01-27T01:38:49;22.78;25.56
76751;SHT31;65216;51.090;-115.352;2024-01-27T01:41:16;22.77;25.56
76751;SHT31;65216;51.090;-115.352;2024-01-27T01:43:43;22.77;25.55
76751;SHT31;65216;51.090;-115.352;2024-01-27T01:46:09;22.76;25.57
76751;SHT31;65216;51.090;-115.352;2024-01-27T01:48:36;22.77;25.53
76751;SHT31;65216;51.090;-115.352;2024-01-27T01:51:03;22.78;25.53
76751;SHT31;65216;51.090;-115.352;2024-01-27T01:53:31;22.79;25.47
76751;SHT31;65216;51.090;-115.352;2024-01-27T01:56:01;22.77;25.52
76751;SHT31;65216;51.090;-115.352;2024-01-27T01:58:30;22.76;25.54
76751;SHT31;65216;51.090;-115.352;2024-01-27T02:01:00;22.78;25.60
76751;SHT31;65216;51.090;-115.352;2024-01-27T02:03:27;22.77;25.58
76751;SHT31;65216;51.090;-115.352;2024-01-27T02:05:55;22.78;25.56
76751;SHT31;65216;51.090;-115.352;2024-01-27T02:08:22;22.76;25.63
76751;SHT31;65216;51.090;-115.352;2024-01-27T02:10:49;22.75;25.60
76751;SHT31;65216;51.090;-115.352;2024-01-27T02:13:19;22.74;25.63
76751;SHT31;65216;51.090;-115.352;2024-01-27T02:15:49;22.74;25.58
76751;SHT31;65216;51.090;-115.352;2024-01-27T02:18:16;22.74;25.50
76751;SHT31;65216;51.090;-115.352;2024-01-27T02:20:43;22.73;25.51
76751;SHT31;65216;51.090;-115.352;2024-01-27T02:23:10;22.73;25.49
76751;SHT31;65216;51.090;-115.352;2024-01-27T02:25:37;22.73;25.51
76751;SHT31;65216;51.090;-115.352;2024-01-27T02:28:05;22.72;25.45
76751;SHT31;65216;51.090;-115.352;2024-01-27T02:30:32;22.73;25.37
76751;SHT31;65216;51.090;-115.352;2024-01-27T02:32:59;22.74;25.29
76751;SHT31;65216;51.090;-115.352;2024-01-27T02:35:28;22.73;25.31
76751;SHT31;65216;51.090;-115.352;2024-01-27T02:37:55;22.73;25.34
76751;SHT31;65216;51.090;-115.352;2024-01-27T02:40:21;22.72;25.30
76751;SHT31;65216;51.090;-115.352;2024-01-27T02:42:49;22.70;25.30
76751;SHT31;65216;51.090;-115.352;2024-01-27T02:45:16;22.69;25.30
76751;SHT31;65216;51.090;-115.352;2024-01-27T02:47:43;22.68;25.32
76751;SHT31;65216;51.090;-115.352;2024-01-27T02:50:10;22.66;25.31
76751;SHT31;65216;51.090;-115.352;2024-01-27T02:52:40;22.68;25.20
76751;SHT31;65216;51.090;-115.352;2024-01-27T02:55:07;22.69;25.23
76751;SHT31;65216;51.090;-115.352;2024-01-27T02:57:34;22.68;25.20
76751;SHT31;65216;51.090;-115.352;2024-01-27T03:00:01;22.68;25.18
76751;SHT31;65216;51.090;-115.352;2024-01-27T03:02:28;22.66;25.18
76751;SHT31;65216;51.090;-115.352;2024-01-27T03:04:56;22.65;25.16
76751;SHT31;65216;51.090;-115.352;2024-01-27T03:07:22;22.66;25.09
76751;SHT31;65216;51.090;-115.352;2024-01-27T03:09:50;22.64;25.08
76751;SHT31;65216;51.090;-115.352;2024-01-27T03:12:17;22.62;25.09
76751;SHT31;65216;51.090;-115.352;2024-01-27T03:14:43;22.63;25.07
76751;SHT31;65216;51.090;-115.352;2024-01-27T03:17:11;22.62;25.01
76751;SHT31;65216;51.090;-115.352;2024-01-27T03:19:38;22.62;25.03
76751;SHT31;65216;51.090;-115.352;2024-01-27T03:22:07;22.62;25.18
76751;SHT31;65216;51.090;-115.352;2024-01-27T03:24:34;22.60;25.04
76751;SHT31;65216;51.090;-115.352;2024-01-27T03:27:01;22.58;25.04
76751;SHT31;65216;51.090;-115.352;2024-01-27T03:29:28;22.57;25.06
76751;SHT31;65216;51.090;-115.352;2024-01-27T03:31:57;22.56;25.03
76751;SHT31;65216;51.090;-115.352;2024-01-27T03:34:24;22.55;25.00
76751;SHT31;65216;51.090;-115.352;2024-01-27T03:36:52;22.53;25.00
76751;SHT31;65216;51.090;-115.352;2024-01-27T03:39:19;22.54;25.03
76751;SHT31;65216;51.090;-115.352;2024-01-27T03:41:46;22.53;25.02
76751;SHT31;65216;51.090;-115.352;2024-01-27T03:44:13;22.52;25.00
76751;SHT31;65216;51.090;-115.352;2024-01-27T03:46:40;22.49;24.95
76751;SHT31;65216;51.090;-115.352;2024-01-27T03:49:09;22.49;24.94
76751;SHT31;65216;51.090;-115.352;2024-01-27T03:51:39;22.48;24.90
76751;SHT31;65216;51.090;-115.352;2024-01-27T03:54:06;22.46;24.83
76751;SHT31;65216;51.090;-115.352;2024-01-27T03:56:32;22.46;24.80
76751;SHT31;65216;51.090;-115.352;2024-01-27T03:58:59;22.45;24.77
76751;SHT31;65216;51.090;-115.352;2024-01-27T04:01:26;22.45;24.71
76751;SHT31;65216;51.090;-115.352;2024-01-27T04:03:53;22.44;24.67
76751;SHT31;65216;51.090;-115.352;2024-01-27T04:06:20;22.45;24.60
76751;SHT31;65216;51.090;-115.352;2024-01-27T04:08:46;22.46;24.59
76751;SHT31;65216;51.090;-115.352;2024-01-27T04:11:21;22.43;24.55
76751;SHT31;65216;51.090;-115.352;2024-01-27T04:13:48;22.42;24.52
76751;SHT31;65216;51.090;-115.352;2024-01-27T04:16:16;22.39;24.50
76751;SHT31;65216;51.090;-115.352;2024-01-27T04:18:44;22.39;24.47
76751;SHT31;65216;51.090;-115.352;2024-01-27T04:21:11;22.39;24.46
76751;SHT31;65216;51.090;-115.352;2024-01-27T04:23:38;22.38;24.40
76751;SHT31;65216;51.090;-115.352;2024-01-27T04:26:05;22.39;24.37
76751;SHT31;65216;51.090;-115.352;2024-01-27T04:28:32;22.38;24.44
76751;SHT31;65216;51.090;-115.352;2024-01-27T04:30:58;22.36;24.41
76751;SHT31;65216;51.090;-115.352;2024-01-27T04:33:30;22.37;24.37
76751;SHT31;65216;51.090;-115.352;2024-01-27T04:35:56;22.37;24.34
76751;SHT31;65216;51.090;-115.352;2024-01-27T04:38:24;22.37;24.30
76751;SHT31;65216;51.090;-115.352;2024-01-27T04:40:51;22.36;24.23
76751;SHT31;65216;51.090;-115.352;2024-01-27T04:43:20;22.37;24.20
76751;SHT31;65216;51.090;-115.352;2024-01-27T04:45:47;22.36;24.19
76751;SHT31;65216;51.090;-115.352;2024-01-27T04:48:15;22.35;24.09
76751;SHT31;65216;51.090;-115.352;2024-01-27T04:50:42;22.36;24.00
76751;SHT31;65216;51.090;-115.352;2024-01-27T04:53:09;22.36;23.97
76751;SHT31;65216;51.090;-115.352;2024-01-27T04:55:38;22.36;23.91
76751;SHT31;65216;51.090;-115.352;2024-01-27T04:58:07;22.35;23.88
76751;SHT31;65216;51.090;-115.352;2024-01-27T05:00:34;22.34;23.84
76751;SHT31;65216;51.090;-115.352;2024-01-27T05:03:03;22.32;23.79
76751;SHT31;65216;51.090;-115.352;2024-01-27T05:05:33;22.31;23.74
76751;SHT31;65216;51.090;-115.352;2024-01-27T05:07:59;22.31;23.69
76751;SHT31;65216;51.090;-115.352;2024-01-27T05:10:28;22.31;23.60
76751;SHT31;65216;51.090;-115.352;2024-01-27T05:12:56;22.33;23.60
76751;SHT31;65216;51.090;-115.352;2024-01-27T05:15:24;22.33;23.52
76751;SHT31;65216;51.090;-115.352;2024-01-27T05:17:51;22.32;23.48
76751;SHT31;65216;51.090;-115.352;2024-01-27T05:20:18;22.31;23.45
76751;SHT31;65216;51.090;-115.352;2024-01-27T05:22:46;22.31;23.40
76751;SHT31;65216;51.090;-115.352;2024-01-27T05:25:12;22.30;23.31
76751;SHT31;65216;51.090;-115.352;2024-01-27T05:27:42;22.31;23.29
76751;SHT31;65216;51.090;-115.352;2024-01-27T05:30:15;22.30;23.23
76751;SHT31;65216;51.090;-115.352;2024-01-27T05:32:43;22.28;23.22
76751;SHT31;65216;51.090;-115.352;2024-01-27T05:35:09;22.27;23.12
76751;SHT31;65216;51.090;-115.352;2024-01-27T05:37:36;22.28;23.13
76751;SHT31;65216;51.090;-115.352;2024-01-27T05:40:05;22.28;23.03
76751;SHT31;65216;51.090;-115.352;2024-01-27T05:42:34;22.28;23.08
76751;SHT31;65216;51.090;-115.352;2024-01-27T05:45:01;22.27;23.12
76751;SHT31;65216;51.090;-115.352;2024-01-27T05:47:29;22.29;23.12
76751;SHT31;65216;51.090;-115.352;2024-01-27T05:49:57;22.29;23.19
76751;SHT31;65216;51.090;-115.352;2024-01-27T05:52:24;22.27;23.20
76751;SHT31;65216;51.090;-115.352;2024-01-27T05:54:51;22.27;23.11
76751;SHT31;65216;51.090;-115.352;2024-01-27T05:57:20;22.27;23.00
76751;SHT31;65216;51.090;-115.352;2024-01-27T05:59:49;22.26;22.92
76751;SHT31;65216;51.090;-115.352;2024-01-27T06:02:19;22.26;22.83
76751;SHT31;65216;51.090;-115.352;2024-01-27T06:04:49;22.26;22.83
76751;SHT31;65216;51.090;-115.352;2024-01-27T06:07:16;22.27;22.81
76751;SHT31;65216;51.090;-115.352;2024-01-27T06:09:42;22.27;22.79
76751;SHT31;65216;51.090;-115.352;2024-01-27T06:12:09;22.26;22.72
76751;SHT31;65216;51.090;-115.352;2024-01-27T06:14:36;22.27;22.68
76751;SHT31;65216;51.090;-115.352;2024-01-27T06:17:04;22.26;22.68
76751;SHT31;65216;51.090;-115.352;2024-01-27T06:19:31;22.25;22.71
76751;SHT31;65216;51.090;-115.352;2024-01-27T06:21:58;22.24;22.63
76751;SHT31;65216;51.090;-115.352;2024-01-27T06:24:24;22.25;22.59
76751;SHT31;65216;51.090;-115.352;2024-01-27T06:26:51;22.25;22.53
76751;SHT31;65216;51.090;-115.352;2024-01-27T06:29:18;22.24;22.50
76751;SHT31;65216;51.090;-115.352;2024-01-27T06:31:45;22.25;22.48
76751;SHT31;65216;51.090;-115.352;2024-01-27T06:34:12;22.27;22.43
76751;SHT31;65216;51.090;-115.352;2024-01-27T06:36:42;22.28;22.36
76751;SHT31;65216;51.090;-115.352;2024-01-27T06:39:09;22.27;22.31
76751;SHT31;65216;51.090;-115.352;2024-01-27T06:41:36;22.27;22.26
76751;SHT31;65216;51.090;-115.352;2024-01-27T06:44:02;22.28;22.22
76751;SHT31;65216;51.090;-115.352;2024-01-27T06:46:32;22.28;22.14
76751;SHT31;65216;51.090;-115.352;2024-01-27T06:48:58;22.29;22.11
76751;SHT31;65216;51.090;-115.352;2024-01-27T06:51:25;22.32;22.12
76751;SHT31;65216;51.090;-115.352;2024-01-27T06:53:52;22.31;22.06
76751;SHT31;65216;51.090;-115.352;2024-01-27T06:56:19;22.28;22.07
76751;SHT31;65216;51.090;-115.352;2024-01-27T06:58:46;22.27;22.10
76751;SHT31;65216;51.090;-115.352;2024-01-27T07:01:13;22.26;22.08
76751;SHT31;65216;51.090;-115.352;2024-01-27T07:03:39;22.26;22.18
76751;SHT31;65216;51.090;-115.352;2024-01-27T07:06:09;22.27;22.54
76751;SHT31;65216;51.090;-115.352;2024-01-27T07:08:36;22.27;23.00
76751;SHT31;65216;51.090;-115.352;2024-01-27T07:11:03;22.25;23.16
76751;SHT31;65216;51.090;-115.352;2024-01-27T07:13:31;22.25;23.53
76751;SHT31;65216;51.090;-115.352;2024-01-27T07:15:58;22.25;23.60
76751;SHT31;65216;51.090;-115.352;2024-01-27T07:18:25;22.25;23.54
76751;SHT31;65216;51.090;-115.352;2024-01-27T07:20:51;22.24;23.49
76751;SHT31;65216;51.090;-115.352;2024-01-27T07:23:20;22.23;23.33
76751;SHT31;65216;51.090;-115.352;2024-01-27T07:25:47;22.27;23.54
76751;SHT31;65216;51.090;-115.352;2024-01-27T07:28:14;22.25;23.67
76751;SHT31;65216;51.090;-115.352;2024-01-27T07:30:44;22.23;23.55
76751;SHT31;65216;51.090;-115.352;2024-01-27T07:33:11;22.22;23.47
76751;SHT31;65216;51.090;-115.352;2024-01-27T07:35:41;22.20;23.40
76751;SHT31;65216;51.090;-115.352;2024-01-27T07:38:07;22.18;23.37
76751;SHT31;65216;51.090;-115.352;2024-01-27T07:40:35;22.18;23.34
76751;SHT31;65216;51.090;-115.352;2024-01-27T07:43:03;22.18;23.30
76751;SHT31;65216;51.090;-115.352;2024-01-27T07:45:30;22.18;23.32
76751;SHT31;65216;51.090;-115.352;2024-01-27T07:47:57;22.17;23.30
76751;SHT31;65216;51.090;-115.352;2024-01-27T07:50:24;22.16;23.30
76751;SHT31;65216;51.090;-115.352;2024-01-27T07:52:54;22.17;23.63
76751;SHT31;65216;51.090;-115.352;2024-01-27T07:55:21;22.19;23.85
76751;SHT31;65216;51.090;-115.352;2024-01-27T07:57:47;22.22;24.26
76751;SHT31;65216;51.090;-115.352;2024-01-27T08:00:14;22.21;24.68
76751;SHT31;65216;51.090;-115.352;2024-01-27T08:02:43;22.19;24.49
76751;SHT31;65216;51.090;-115.352;2024-01-27T08:05:10;22.19;24.35
76751;SHT31;65216;51.090;-115.352;2024-01-27T08:07:37;22.20;24.13
76751;SHT31;65216;51.090;-115.352;2024-01-27T08:10:06;22.22;24.08
76751;SHT31;65216;51.090;-115.352;2024-01-27T08:12:36;22.21;24.01
76751;SHT31;65216;51.090;-115.352;2024-01-27T08:15:04;22.21;23.91
76751;SHT31;65216;51.090;-115.352;2024-01-27T08:17:32;22.20;23.82
76751;SHT31;65216;51.090;-115.352;2024-01-27T08:19:59;22.19;23.79
76751;SHT31;65216;51.090;-115.352;2024-01-27T08:22:26;22.19;23.70
76751;SHT31;65216;51.090;-115.352;2024-01-27T08:24:54;22.18;23.61
76751;SHT31;65216;51.090;-115.352;2024-01-27T08:27:21;22.18;23.57
76751;SHT31;65216;51.090;-115.352;2024-01-27T08:29:48;22.17;23.48
76751;SHT31;65216;51.090;-115.352;2024-01-27T08:32:15;22.17;23.41
76751;SHT31;65216;51.090;-115.352;2024-01-27T08:34:44;22.14;23.37
76751;SHT31;65216;51.090;-115.352;2024-01-27T08:37:18;22.11;23.33
76751;SHT31;65216;51.090;-115.352;2024-01-27T08:39:46;22.07;23.34
76751;SHT31;65216;51.090;-115.352;2024-01-27T08:42:13;22.04;23.29
76751;SHT31;65216;51.090;-115.352;2024-01-27T08:44:40;22.02;23.29
76751;SHT31;65216;51.090;-115.352;2024-01-27T08:47:07;22.00;23.29
76751;SHT31;65216;51.090;-115.352;2024-01-27T08:49:34;21.99;23.22
76751;SHT31;65216;51.090;-115.352;2024-01-27T08:52:01;21.98;23.19
76751;SHT31;65216;51.090;-115.352;2024-01-27T08:54:28;21.95;23.14
76751;SHT31;65216;51.090;-115.352;2024-01-27T08:56:56;21.93;23.10
76751;SHT31;65216;51.090;-115.352;2024-01-27T08:59:25;21.91;23.04
76751;SHT31;65216;51.090;-115.352;2024-01-27T09:01:52;21.91;23.02
76751;SHT31;65216;51.090;-115.352;2024-01-27T09:04:19;21.89;23.01
76751;SHT31;65216;51.090;-115.352;2024-01-27T09:06:46;21.87;22.97
76751;SHT31;65216;51.090;-115.352;2024-01-27T09:09:12;21.87;22.94
76751;SHT31;65216;51.090;-115.352;2024-01-27T09:11:40;21.86;22.90
76751;SHT31;65216;51.090;-115.352;2024-01-27T09:14:07;21.86;22.90
76751;SHT31;65216;51.090;-115.352;2024-01-27T09:16:33;21.82;22.88
76751;SHT31;65216;51.090;-115.352;2024-01-27T09:19:01;21.80;22.84
76751;SHT31;65216;51.090;-115.352;2024-01-27T09:21:28;21.79;22.83
76751;SHT31;65216;51.090;-115.352;2024-01-27T09:23:58;21.77;22.80
76751;SHT31;65216;51.090;-115.352;2024-01-27T09:26:27;21.77;22.79
76751;SHT31;65216;51.090;-115.352;2024-01-27T09:28:56;21.77;22.76
76751;SHT31;65216;51.090;-115.352;2024-01-27T09:31:23;21.75;22.77
76751;SHT31;65216;51.090;-115.352;2024-01-27T09:33:51;21.73;22.71
76751;SHT31;65216;51.090;-115.352;2024-01-27T09:36:22;21.72;22.70
76751;SHT31;65216;51.090;-115.352;2024-01-27T09:38:49;21.72;22.65
76751;SHT31;65216;51.090;-115.352;2024-01-27T09:41:18;21.72;22.62
76751;SHT31;65216;51.090;-115.352;2024-01-27T09:43:46;21.70;22.60
76751;SHT31;65216;51.090;-115.352;2024-01-27T09:46:14;21.69;22.59
76751;SHT31;65216;51.090;-115.352;2024-01-27T09:48:44;21.68;22.55
76751;SHT31;65216;51.090;-115.352;2024-01-27T09:51:11;21.68;22.53
76751;SHT31;65216;51.090;-115.352;2024-01-27T09:53:38;21.67;22.51
76751;SHT31;65216;51.090;-115.352;2024-01-27T09:56:06;21.67;22.50
76751;SHT31;65216;51.090;-115.352;2024-01-27T09:58:34;21.66;22.51
76751;SHT31;65216;51.090;-115.352;2024-01-27T10:01:05;21.63;22.46
76751;SHT31;65216;51.090;-115.352;2024-01-27T10:03:38;21.64;22.44
76751;SHT31;65216;51.090;-115.352;2024-01-27T10:06:09;21.62;22.43
76751;SHT31;65216;51.090;-115.352;2024-01-27T10:08:37;21.62;22.42
76751;SHT31;65216;51.090;-115.352;2024-01-27T10:11:06;21.61;22.39
76751;SHT31;65216;51.090;-115.352;2024-01-27T10:13:35;21.62;22.32
76751;SHT31;65216;51.090;-115.352;2024-01-27T10:16:06;21.61;22.31
76751;SHT31;65216;51.090;-115.352;2024-01-27T10:18:35;21.60;22.30
76751;SHT31;65216;51.090;-115.352;2024-01-27T10:21:14;21.59;22.29
76751;SHT31;65216;51.090;-115.352;2024-01-27T10:23:45;21.59;22.30
76751;SHT31;65216;51.090;-115.352;2024-01-27T10:26:13;21.58;22.25
76751;SHT31;65216;51.090;-115.352;2024-01-27T10:28:40;21.56;22.23
76751;SHT31;65216;51.090;-115.352;2024-01-27T10:31:08;21.56;22.23
76751;SHT31;65216;51.090;-115.352;2024-01-27T10:33:36;21.56;22.21
76751;SHT31;65216;51.090;-115.352;2024-01-27T10:36:04;21.54;22.23
76751;SHT31;65216;51.090;-115.352;2024-01-27T10:41:09;21.55;22.14
76751;SHT31;65216;51.090;-115.352;2024-01-27T10:43:36;21.54;22.14
76751;SHT31;65216;51.090;-115.352;2024-01-27T10:46:07;21.53;22.12
76751;SHT31;65216;51.090;-115.352;2024-01-27T10:48:35;21.52;22.13
76751;SHT31;65216;51.090;-115.352;2024-01-27T10:51:08;21.53;22.14
76751;SHT31;65216;51.090;-115.352;2024-01-27T10:53:42;21.53;22.09
76751;SHT31;65216;51.090;-115.352;2024-01-27T10:56:19;21.53;22.08
76751;SHT31;65216;51.090;-115.352;2024-01-27T10:58:49;21.53;22.09
76751;SHT31;65216;51.090;-115.352;2024-01-27T11:01:18;21.52;22.08
76751;SHT31;65216;51.090;-115.352;2024-01-27T11:03:48;21.52;22.07
76751;SHT31;65216;51.090;-115.352;2024-01-27T11:06:18;21.53;22.03
76751;SHT31;65216;51.090;-115.352;2024-01-27T11:08:51;21.53;21.99
76751;SHT31;65216;51.090;-115.352;2024-01-27T11:11:20;21.52;22.01
76751;SHT31;65216;51.090;-115.352;2024-01-27T11:13:48;21.52;22.00
76751;SHT31;65216;51.090;-115.352;2024-01-27T11:16:17;21.51;22.00
76751;SHT31;65216;51.090;-115.352;2024-01-27T11:18:47;21.53;22.00
76751;SHT31;65216;51.090;-115.352;2024-01-27T11:21:20;21.52;21.98
76751;SHT31;65216;51.090;-115.352;2024-01-27T11:23:46;21.52;21.98
76751;SHT31;65216;51.090;-115.352;2024-01-27T11:26:21;21.50;21.98
76751;SHT31;65216;51.090;-115.352;2024-01-27T11:28:51;21.49;21.99
76751;SHT31;65216;51.090;-115.352;2024-01-27T11:31:18;21.47;21.98
76751;SHT31;65216;51.090;-115.352;2024-01-27T11:33:50;21.47;21.99
76751;SHT31;65216;51.090;-115.352;2024-01-27T11:36:20;21.47;21.98
76751;SHT31;65216;51.090;-115.352;2024-01-27T11:38:51;21.46;22.00
76751;SHT31;65216;51.090;-115.352;2024-01-27T11:41:25;21.46;21.99
76751;SHT31;65216;51.090;-115.352;2024-01-27T11:43:54;21.44;21.97
76751;SHT31;65216;51.090;-115.352;2024-01-27T11:46:25;21.44;22.00
76751;SHT31;65216;51.090;-115.352;2024-01-27T11:48:52;21.42;22.00
76751;SHT31;65216;51.090;-115.352;2024-01-27T11:51:19;21.41;21.98
76751;SHT31;65216;51.090;-115.352;2024-01-27T11:53:48;21.42;21.98
76751;SHT31;65216;51.090;-115.352;2024-01-27T11:56:15;21.41;21.98
76751;SHT31;65216;51.090;-115.352;2024-01-27T11:58:46;21.40;21.94
76751;SHT31;65216;51.090;-115.352;2024-01-27T12:01:14;21.40;21.98
76751;SHT31;65216;51.090;-115.352;2024-01-27T12:03:42;21.40;21.96
76751;SHT31;65216;51.090;-115.352;2024-01-27T12:06:09;21.41;21.94
76751;SHT31;65216;51.090;-115.352;2024-01-27T12:08:36;21.42;21.92
76751;SHT31;65216;51.090;-115.352;2024-01-27T12:11:03;21.40;21.91
76751;SHT31;65216;51.090;-115.352;2024-01-27T12:13:31;21.39;21.95
76751;SHT31;65216;51.090;-115.352;2024-01-27T12:16:00;21.39;21.91
76751;SHT31;65216;51.090;-115.352;2024-01-27T12:18:27;21.38;21.92
76751;SHT31;65216;51.090;-115.352;2024-01-27T12:20:55;21.39;21.91
76751;SHT31;65216;51.090;-115.352;2024-01-27T12:23:23;21.37;21.92
76751;SHT31;65216;51.090;-115.352;2024-01-27T12:25:53;21.37;21.96
76751;SHT31;65216;51.090;-115.352;2024-01-27T12:28:24;21.37;21.99
76751;SHT31;65216;51.090;-115.352;2024-01-27T12:30:52;21.38;21.96
76751;SHT31;65216;51.090;-115.352;2024-01-27T12:33:20;21.38;21.93
76751;SHT31;65216;51.090;-115.352;2024-01-27T12:35:51;21.39;21.93
76751;SHT31;65216;51.090;-115.352;2024-01-27T12:38:19;21.38;21.91
76751;SHT31;65216;51.090;-115.352;2024-01-27T12:40:48;21.38;21.91
76751;SHT31;65216;51.090;-115.352;2024-01-27T12:43:16;21.38;21.91
76751;SHT31;65216;51.090;-115.352;2024-01-27T12:45:43;21.38;21.90
76751;SHT31;65216;51.090;-115.352;2024-01-27T12:48:10;21.39;21.91
76751;SHT31;65216;51.090;-115.352;2024-01-27T12:50:37;21.39;21.91
76751;SHT31;65216;51.090;-115.352;2024-01-27T12:53:05;21.40;21.90
76751;SHT31;65216;51.090;-115.352;2024-01-27T12:55:32;21.42;21.86
76751;SHT31;65216;51.090;-115.352;2024-01-27T12:57:59;21.42;21.83
76751;SHT31;65216;51.090;-115.352;2024-01-27T13:00:25;21.43;21.80
76751;SHT31;65216;51.090;-115.352;2024-01-27T13:02:52;21.44;21.79
76751;SHT31;65216;51.090;-115.352;2024-01-27T13:05:19;21.43;21.78
76751;SHT31;65216;51.090;-115.352;2024-01-27T13:07:46;21.43;21.80
76751;SHT31;65216;51.090;-115.352;2024-01-27T13:10:14;21.42;21.78
76751;SHT31;65216;51.090;-115.352;2024-01-27T13:12:41;21.42;21.79
76751;SHT31;65216;51.090;-115.352;2024-01-27T13:15:10;21.43;21.75
76751;SHT31;65216;51.090;-115.352;2024-01-27T13:17:37;21.43;21.76
76751;SHT31;65216;51.090;-115.352;2024-01-27T13:20:06;21.40;21.74
76751;SHT31;65216;51.090;-115.352;2024-01-27T13:22:33;21.40;21.80
76751;SHT31;65216;51.090;-115.352;2024-01-27T13:25:02;21.39;21.75
76751;SHT31;65216;51.090;-115.352;2024-01-27T13:27:31;21.39;21.77
76751;SHT31;65216;51.090;-115.352;2024-01-27T13:29:59;21.38;21.74
76751;SHT31;65216;51.090;-115.352;2024-01-27T13:32:27;21.38;21.74
76751;SHT31;65216;51.090;-115.352;2024-01-27T13:34:54;21.38;21.77
76751;SHT31;65216;51.090;-115.352;2024-01-27T13:37:21;21.36;21.78
76751;SHT31;65216;51.090;-115.352;2024-01-27T13:39:48;21.35;21.80
76751;SHT31;65216;51.090;-115.352;2024-01-27T13:42:16;21.35;21.80
76751;SHT31;65216;51.090;-115.352;2024-01-27T13:44:43;21.34;21.80
76751;SHT31;65216;51.090;-115.352;2024-01-27T13:47:11;21.35;21.80
76751;SHT31;65216;51.090;-115.352;2024-01-27T13:49:41;21.35;21.80
76751;SHT31;65216;51.090;-115.352;2024-01-27T13:52:10;21.35;21.79
76751;SHT31;65216;51.090;-115.352;2024-01-27T13:54:37;21.35;21.79
76751;SHT31;65216;51.090;-115.352;2024-01-27T13:57:04;21.34;21.80
76751;SHT31;65216;51.090;-115.352;2024-01-27T13:59:34;21.34;21.80
76751;SHT31;65216;51.090;-115.352;2024-01-27T14:02:01;21.34;21.79
76751;SHT31;65216;51.090;-115.352;2024-01-27T14:04:28;21.35;21.81
76751;SHT31;65216;51.090;-115.352;2024-01-27T14:06:55;21.36;21.79
76751;SHT31;65216;51.090;-115.352;2024-01-27T14:09:23;21.36;21.81
76751;SHT31;65216;51.090;-115.352;2024-01-27T14:11:50;21.36;21.80
76751;SHT31;65216;51.090;-115.352;2024-01-27T14:14:17;21.38;21.80
76751;SHT31;65216;51.090;-115.352;2024-01-27T14:16:46;21.38;21.80
76751;SHT31;65216;51.090;-115.352;2024-01-27T14:19:13;21.38;21.82
76751;SHT31;65216;51.090;-115.352;2024-01-27T14:21:40;21.38;21.82
76751;SHT31;65216;51.090;-115.352;2024-01-27T14:24:07;21.41;21.84
76751;SHT31;65216;51.090;-115.352;2024-01-27T14:26:35;21.42;21.84
76751;SHT31;65216;51.090;-115.352;2024-01-27T14:29:04;21.42;21.81
76751;SHT31;65216;51.090;-115.352;2024-01-27T14:31:32;21.43;21.83
76751;SHT31;65216;51.090;-115.352;2024-01-27T14:33:58;21.43;21.84
76751;SHT31;65216;51.090;-115.352;2024-01-27T14:36:25;21.46;21.80
76751;SHT31;65216;51.090;-115.352;2024-01-27T14:38:52;21.49;21.78
76751;SHT31;65216;51.090;-115.352;2024-01-27T14:41:20;21.52;21.78
76751;SHT31;65216;51.090;-115.352;2024-01-27T14:43:47;21.53;21.79
76751;SHT31;65216;51.090;-115.352;2024-01-27T14:46:15;21.53;21.77
76751;SHT31;65216;51.090;-115.352;2024-01-27T14:48:42;21.54;21.78
76751;SHT31;65216;51.090;-115.352;2024-01-27T14:51:10;21.55;21.78
76751;SHT31;65216;51.090;-115.352;2024-01-27T14:53:38;21.54;21.80